sensor_id;sensor_type;location;lat;lon;timestamp;temperature;humidity
4390;DHT22;2209;48.982;8.406;2023-03-23T00:01:07;16.60;94.00
4390;DHT22;2209;48.982;8.406;2023-03-23T00:03:32;16.50;93.80
4390;DHT22;2209;48.982;8.406;2023-03-23T00:05:55;16.50;93.80
4390;DHT22;2209;48.982;8.406;2023-03-23T00:08:20;16.50;93.80
4390;DHT22;2209;48.982;8.406;2023-03-23T00:10:42;16.50;93.70
4390;DHT22;2209;48.982;8.406;2023-03-23T00:13:04;16.50;93.60
4390;DHT22;2209;48.982;8.406;2023-03-23T00:15:26;16.50;93.60
4390;DHT22;2209;48.982;8.406;2023-03-23T00:17:51;16.50;93.50
4390;DHT22;2209;48.982;8.406;2023-03-23T00:20:14;16.50;93.50
4390;DHT22;2209;48.982;8.406;2023-03-23T00:22:37;16.50;93.50
4390;DHT22;2209;48.982;8.406;2023-03-23T00:25:01;16.50;93.60
4390;DHT22;2209;48.982;8.406;2023-03-23T00:27:23;16.50;93.60
4390;DHT22;2209;48.982;8.406;2023-03-23T00:29:46;16.50;93.60
4390;DHT22;2209;48.982;8.406;2023-03-23T00:32:09;16.50;93.50
4390;DHT22;2209;48.982;8.406;2023-03-23T00:34:33;16.50;93.50
4390;DHT22;2209;48.982;8.406;2023-03-23T00:36:56;16.50;93.60
4390;DHT22;2209;48.982;8.406;2023-03-23T00:39:20;16.50;93.50
4390;DHT22;2209;48.982;8.406;2023-03-23T00:41:46;16.50;93.50
4390;DHT22;2209;48.982;8.406;2023-03-23T00:44:08;16.50;93.50
4390;DHT22;2209;48.982;8.406;2023-03-23T00:46:30;16.40;93.40
4390;DHT22;2209;48.982;8.406;2023-03-23T00:48:52;16.40;93.50
4390;DHT22;2209;48.982;8.406;2023-03-23T00:51:14;16.50;93.60
4390;DHT22;2209;48.982;8.406;2023-03-23T00:53:39;16.50;93.60
4390;DHT22;2209;48.982;8.406;2023-03-23T00:56:02;16.40;93.50
4390;DHT22;2209;48.982;8.406;2023-03-23T00:58:24;16.40;93.50
4390;DHT22;2209;48.982;8.406;2023-03-23T01:00:46;16.40;93.60
4390;DHT22;2209;48.982;8.406;2023-03-23T01:03:09;16.40;93.60
4390;DHT22;2209;48.982;8.406;2023-03-23T01:05:34;16.40;93.50
4390;DHT22;2209;48.982;8.406;2023-03-23T01:07:56;16.40;93.60
4390;DHT22;2209;48.982;8.406;2023-03-23T01:10:19;16.50;93.60
4390;DHT22;2209;48.982;8.406;2023-03-23T01:12:42;16.50;93.60
4390;DHT22;2209;48.982;8.406;2023-03-23T01:15:06;16.50;93.60
4390;DHT22;2209;48.982;8.406;2023-03-23T01:17:28;16.50;93.50
4390;DHT22;2209;48.982;8.406;2023-03-23T01:19:50;16.50;93.50
4390;DHT22;2209;48.982;8.406;2023-03-23T01:22:12;16.50;93.50
4390;DHT22;2209;48.982;8.406;2023-03-23T01:24:34;16.50;93.40
4390;DHT22;2209;48.982;8.406;2023-03-23T01:26:58;16.50;93.30
4390;DHT22;2209;48.982;8.406;2023-03-23T01:29:22;16.50;93.70
4390;DHT22;2209;48.982;8.406;2023-03-23T01:31:44;16.50;93.20
4390;DHT22;2209;48.982;8.406;2023-03-23T01:34:06;16.50;93.20
4390;DHT22;2209;48.982;8.406;2023-03-23T01:36:30;16.50;93.20
4390;DHT22;2209;48.982;8.406;2023-03-23T01:38:53;16.50;93.00
4390;DHT22;2209;48.982;8.406;2023-03-23T01:41:17;16.60;93.00
4390;DHT22;2209;48.982;8.406;2023-03-23T01:43:59;16.60;93.00
4390;DHT22;2209;48.982;8.406;2023-03-23T01:46:24;16.50;92.90
4390;DHT22;2209;48.982;8.406;2023-03-23T01:48:46;16.60;92.70
4390;DHT22;2209;48.982;8.406;2023-03-23T01:51:11;16.60;92.80
4390;DHT22;2209;48.982;8.406;2023-03-23T01:53:38;16.60;92.70
4390;DHT22;2209;48.982;8.406;2023-03-23T01:56:02;16.60;92.60
4390;DHT22;2209;48.982;8.406;2023-03-23T01:58:27;16.60;92.60
4390;DHT22;2209;48.982;8.406;2023-03-23T02:00:51;16.60;92.50
4390;DHT22;2209;48.982;8.406;2023-03-23T02:03:14;16.60;92.40
4390;DHT22;2209;48.982;8.406;2023-03-23T02:05:39;16.70;92.40
4390;DHT22;2209;48.982;8.406;2023-03-23T02:08:04;16.70;92.20
4390;DHT22;2209;48.982;8.406;2023-03-23T02:10:30;16.70;92.20
4390;DHT22;2209;48.982;8.406;2023-03-23T02:12:52;16.70;92.20
4390;DHT22;2209;48.982;8.406;2023-03-23T02:15:14;16.70;92.20
4390;DHT22;2209;48.982;8.406;2023-03-23T02:17:42;16.70;92.10
4390;DHT22;2209;48.982;8.406;2023-03-23T02:20:17;16.70;92.00
4390;DHT22;2209;48.982;8.406;2023-03-23T02:25:38;16.80;92.00
4390;DHT22;2209;48.982;8.406;2023-03-23T02:28:20;16.80;92.00
4390;DHT22;2209;48.982;8.406;2023-03-23T02:31:05;16.80;91.90
4390;DHT22;2209;48.982;8.406;2023-03-23T02:33:40;16.80;91.80
4390;DHT22;2209;48.982;8.406;2023-03-23T02:36:12;16.80;91.80
4390;DHT22;2209;48.982;8.406;2023-03-23T02:38:39;16.80;91.80
4390;DHT22;2209;48.982;8.406;2023-03-23T02:41:04;16.80;91.80
4390;DHT22;2209;48.982;8.406;2023-03-23T02:43:30;16.90;91.80
4390;DHT22;2209;48.982;8.406;2023-03-23T02:45:55;16.80;91.80
4390;DHT22;2209;48.982;8.406;2023-03-23T02:48:20;16.90;91.90
4390;DHT22;2209;48.982;8.406;2023-03-23T02:50:47;16.90;91.80
4390;DHT22;2209;48.982;8.406;2023-03-23T02:53:12;16.90;91.90
4390;DHT22;2209;48.982;8.406;2023-03-23T02:55:36;16.90;91.90
4390;DHT22;2209;48.982;8.406;2023-03-23T02:58:02;16.90;92.00
4390;DHT22;2209;48.982;8.406;2023-03-23T03:00:24;16.90;92.00
4390;DHT22;2209;48.982;8.406;2023-03-23T03:02:49;16.90;92.00
4390;DHT22;2209;48.982;8.406;2023-03-23T03:05:17;16.90;92.10
4390;DHT22;2209;48.982;8.406;2023-03-23T03:07:50;16.90;92.10
4390;DHT22;2209;48.982;8.406;2023-03-23T03:10:22;16.90;92.20
4390;DHT22;2209;48.982;8.406;2023-03-23T03:12:51;16.90;92.20
4390;DHT22;2209;48.982;8.406;2023-03-23T03:15:25;16.90;92.30
4390;DHT22;2209;48.982;8.406;2023-03-23T03:17:56;16.90;92.30
4390;DHT22;2209;48.982;8.406;2023-03-23T03:20:20;16.90;92.40
4390;DHT22;2209;48.982;8.406;2023-03-23T03:22:44;16.90;92.40
4390;DHT22;2209;48.982;8.406;2023-03-23T03:25:11;16.90;92.50
4390;DHT22;2209;48.982;8.406;2023-03-23T03:27:34;16.90;92.60
4390;DHT22;2209;48.982;8.406;2023-03-23T03:29:59;16.90;92.70
4390;DHT22;2209;48.982;8.406;2023-03-23T03:32:31;16.90;92.80
4390;DHT22;2209;48.982;8.406;2023-03-23T03:34:54;16.90;92.90
4390;DHT22;2209;48.982;8.406;2023-03-23T03:37:16;16.90;92.90
4390;DHT22;2209;48.982;8.406;2023-03-23T03:39:39;17.00;93.10
4390;DHT22;2209;48.982;8.406;2023-03-23T03:42:03;17.00;93.20
4390;DHT22;2209;48.982;8.406;2023-03-23T03:44:25;17.00;93.30
4390;DHT22;2209;48.982;8.406;2023-03-23T03:46:47;17.00;93.30
4390;DHT22;2209;48.982;8.406;2023-03-23T03:49:10;16.90;93.30
4390;DHT22;2209;48.982;8.406;2023-03-23T03:51:34;17.00;93.30
4390;DHT22;2209;48.982;8.406;2023-03-23T03:53:57;17.00;93.40
4390;DHT22;2209;48.982;8.406;2023-03-23T03:56:20;17.00;93.50
4390;DHT22;2209;48.982;8.406;2023-03-23T03:58:44;16.90;93.50
4390;DHT22;2209;48.982;8.406;2023-03-23T04:01:06;17.00;93.60
4390;DHT22;2209;48.982;8.406;2023-03-23T04:03:30;17.00;93.60
4390;DHT22;2209;48.982;8.406;2023-03-23T04:05:53;17.00;93.60
4390;DHT22;2209;48.982;8.406;2023-03-23T04:08:18;17.00;93.60
4390;DHT22;2209;48.982;8.406;2023-03-23T04:10:42;17.00;93.60
4390;DHT22;2209;48.982;8.406;2023-03-23T04:13:07;17.00;93.70
4390;DHT22;2209;48.982;8.406;2023-03-23T04:15:32;16.90;93.60
4390;DHT22;2209;48.982;8.406;2023-03-23T04:17:54;16.90;93.60
4390;DHT22;2209;48.982;8.406;2023-03-23T04:20:17;17.00;93.70
4390;DHT22;2209;48.982;8.406;2023-03-23T04:22:40;17.00;93.70
4390;DHT22;2209;48.982;8.406;2023-03-23T04:25:05;16.90;93.70
4390;DHT22;2209;48.982;8.406;2023-03-23T04:27:27;17.00;93.70
4390;DHT22;2209;48.982;8.406;2023-03-23T04:29:49;17.00;93.70
4390;DHT22;2209;48.982;8.406;2023-03-23T04:32:13;17.00;93.60
4390;DHT22;2209;48.982;8.406;2023-03-23T04:34:35;17.00;93.70
4390;DHT22;2209;48.982;8.406;2023-03-23T04:36:57;17.00;94.00
4390;DHT22;2209;48.982;8.406;2023-03-23T04:39:19;17.00;93.80
4390;DHT22;2209;48.982;8.406;2023-03-23T04:41:41;17.00;93.90
4390;DHT22;2209;48.982;8.406;2023-03-23T04:44:05;17.00;94.00
4390;DHT22;2209;48.982;8.406;2023-03-23T04:46:27;17.00;94.20
4390;DHT22;2209;48.982;8.406;2023-03-23T04:48:52;16.90;94.20
4390;DHT22;2209;48.982;8.406;2023-03-23T04:51:15;17.00;94.30
4390;DHT22;2209;48.982;8.406;2023-03-23T04:53:38;17.00;94.40
4390;DHT22;2209;48.982;8.406;2023-03-23T04:56:00;16.90;94.80
4390;DHT22;2209;48.982;8.406;2023-03-23T04:58:23;16.90;94.50
4390;DHT22;2209;48.982;8.406;2023-03-23T05:00:45;16.90;94.50
4390;DHT22;2209;48.982;8.406;2023-03-23T05:03:10;16.90;94.60
4390;DHT22;2209;48.982;8.406;2023-03-23T05:05:34;16.90;94.70
4390;DHT22;2209;48.982;8.406;2023-03-23T05:07:56;16.90;94.80
4390;DHT22;2209;48.982;8.406;2023-03-23T05:10:18;16.90;95.00
4390;DHT22;2209;48.982;8.406;2023-03-23T05:12:41;16.80;95.00
4390;DHT22;2209;48.982;8.406;2023-03-23T05:15:05;16.90;95.20
4390;DHT22;2209;48.982;8.406;2023-03-23T05:17:28;16.90;95.40
4390;DHT22;2209;48.982;8.406;2023-03-23T05:19:51;16.80;95.50
4390;DHT22;2209;48.982;8.406;2023-03-23T05:22:15;16.80;95.80
4390;DHT22;2209;48.982;8.406;2023-03-23T05:24:37;16.80;95.90
4390;DHT22;2209;48.982;8.406;2023-03-23T05:26:59;16.80;96.10
4390;DHT22;2209;48.982;8.406;2023-03-23T05:29:26;16.70;96.20
4390;DHT22;2209;48.982;8.406;2023-03-23T05:31:50;16.60;96.50
4390;DHT22;2209;48.982;8.406;2023-03-23T05:34:13;16.60;96.60
4390;DHT22;2209;48.982;8.406;2023-03-23T05:36:36;16.60;96.80
4390;DHT22;2209;48.982;8.406;2023-03-23T05:39:00;16.60;96.80
4390;DHT22;2209;48.982;8.406;2023-03-23T05:41:24;16.60;96.90
4390;DHT22;2209;48.982;8.406;2023-03-23T05:43:46;16.60;97.00
4390;DHT22;2209;48.982;8.406;2023-03-23T05:46:08;16.50;97.10
4390;DHT22;2209;48.982;8.406;2023-03-23T05:48:30;16.60;97.10
4390;DHT22;2209;48.982;8.406;2023-03-23T05:50:52;16.60;97.20
4390;DHT22;2209;48.982;8.406;2023-03-23T05:53:14;16.60;97.30
4390;DHT22;2209;48.982;8.406;2023-03-23T05:55:38;16.60;97.50
4390;DHT22;2209;48.982;8.406;2023-03-23T05:58:00;16.50;97.50
4390;DHT22;2209;48.982;8.406;2023-03-23T06:00:22;16.50;97.60
4390;DHT22;2209;48.982;8.406;2023-03-23T06:02:44;16.50;97.80
4390;DHT22;2209;48.982;8.406;2023-03-23T06:05:07;16.50;97.80
4390;DHT22;2209;48.982;8.406;2023-03-23T06:07:29;16.50;97.90
4390;DHT22;2209;48.982;8.406;2023-03-23T06:09:52;16.60;98.10
4390;DHT22;2209;48.982;8.406;2023-03-23T06:12:16;16.50;98.20
4390;DHT22;2209;48.982;8.406;2023-03-23T06:14:40;16.60;98.90
4390;DHT22;2209;48.982;8.406;2023-03-23T06:17:03;16.50;98.90
4390;DHT22;2209;48.982;8.406;2023-03-23T06:19:25;16.50;99.00
4390;DHT22;2209;48.982;8.406;2023-03-23T06:21:48;16.50;99.10
4390;DHT22;2209;48.982;8.406;2023-03-23T06:24:10;16.50;99.20
4390;DHT22;2209;48.982;8.406;2023-03-23T06:26:34;16.50;99.20
4390;DHT22;2209;48.982;8.406;2023-03-23T06:28:58;16.50;99.20
4390;DHT22;2209;48.982;8.406;2023-03-23T06:31:20;16.50;99.40
4390;DHT22;2209;48.982;8.406;2023-03-23T06:33:43;16.50;99.50
4390;DHT22;2209;48.982;8.406;2023-03-23T06:36:06;16.40;99.70
4390;DHT22;2209;48.982;8.406;2023-03-23T06:38:28;16.50;99.90
4390;DHT22;2209;48.982;8.406;2023-03-23T06:40:51;16.40;99.90
4390;DHT22;2209;48.982;8.406;2023-03-23T06:43:13;16.40;99.90
4390;DHT22;2209;48.982;8.406;2023-03-23T06:45:37;16.50;99.90
4390;DHT22;2209;48.982;8.406;2023-03-23T06:47:59;16.40;99.90
4390;DHT22;2209;48.982;8.406;2023-03-23T06:50:21;16.40;99.90
4390;DHT22;2209;48.982;8.406;2023-03-23T06:52:45;16.50;99.90
4390;DHT22;2209;48.982;8.406;2023-03-23T06:55:08;16.50;99.90
4390;DHT22;2209;48.982;8.406;2023-03-23T06:57:30;16.50;99.90
4390;DHT22;2209;48.982;8.406;2023-03-23T06:59:52;16.50;99.90
4390;DHT22;2209;48.982;8.406;2023-03-23T07:02:15;16.50;99.90
4390;DHT22;2209;48.982;8.406;2023-03-23T07:04:38;16.50;99.90
4390;DHT22;2209;48.982;8.406;2023-03-23T07:07:01;16.50;99.90
4390;DHT22;2209;48.982;8.406;2023-03-23T07:09:23;16.40;99.90
4390;DHT22;2209;48.982;8.406;2023-03-23T07:11:46;16.30;99.90
4390;DHT22;2209;48.982;8.406;2023-03-23T07:14:08;16.30;99.90
4390;DHT22;2209;48.982;8.406;2023-03-23T07:16:30;16.20;99.90
4390;DHT22;2209;48.982;8.406;2023-03-23T07:18:54;16.30;99.90
4390;DHT22;2209;48.982;8.406;2023-03-23T07:21:16;16.20;99.90
4390;DHT22;2209;48.982;8.406;2023-03-23T07:23:38;16.20;99.90
4390;DHT22;2209;48.982;8.406;2023-03-23T07:26:00;16.20;99.90
4390;DHT22;2209;48.982;8.406;2023-03-23T07:28:24;16.20;99.90
4390;DHT22;2209;48.982;8.406;2023-03-23T07:30:46;16.20;99.90
4390;DHT22;2209;48.982;8.406;2023-03-23T07:33:08;16.20;99.90
4390;DHT22;2209;48.982;8.406;2023-03-23T07:35:32;16.20;99.90
4390;DHT22;2209;48.982;8.406;2023-03-23T07:37:55;16.20;99.90
4390;DHT22;2209;48.982;8.406;2023-03-23T07:40:18;16.30;99.90
4390;DHT22;2209;48.982;8.406;2023-03-23T07:42:42;16.30;99.90
4390;DHT22;2209;48.982;8.406;2023-03-23T07:45:05;16.20;99.90
4390;DHT22;2209;48.982;8.406;2023-03-23T07:47:27;16.30;99.90
4390;DHT22;2209;48.982;8.406;2023-03-23T07:49:50;16.20;99.90
4390;DHT22;2209;48.982;8.406;2023-03-23T07:52:13;16.20;99.90
4390;DHT22;2209;48.982;8.406;2023-03-23T07:54:35;16.20;99.90
4390;DHT22;2209;48.982;8.406;2023-03-23T07:56:57;16.20;99.90
4390;DHT22;2209;48.982;8.406;2023-03-23T07:59:19;16.20;99.90
4390;DHT22;2209;48.982;8.406;2023-03-23T08:01:42;16.20;99.90
4390;DHT22;2209;48.982;8.406;2023-03-23T08:04:04;16.20;99.90
4390;DHT22;2209;48.982;8.406;2023-03-23T08:06:27;16.20;99.90
4390;DHT22;2209;48.982;8.406;2023-03-23T08:08:51;16.10;99.90
4390;DHT22;2209;48.982;8.406;2023-03-23T08:11:13;16.10;99.90
4390;DHT22;2209;48.982;8.406;2023-03-23T08:13:36;16.10;99.90
4390;DHT22;2209;48.982;8.406;2023-03-23T08:15:59;16.10;99.90
4390;DHT22;2209;48.982;8.406;2023-03-23T08:18:24;16.10;99.90
4390;DHT22;2209;48.982;8.406;2023-03-23T08:20:46;16.10;99.90
4390;DHT22;2209;48.982;8.406;2023-03-23T08:23:10;16.10;99.90
4390;DHT22;2209;48.982;8.406;2023-03-23T08:25:33;16.10;99.90
4390;DHT22;2209;48.982;8.406;2023-03-23T08:27:56;16.10;99.90
4390;DHT22;2209;48.982;8.406;2023-03-23T08:30:20;16.10;99.90
4390;DHT22;2209;48.982;8.406;2023-03-23T08:32:43;16.20;99.90
4390;DHT22;2209;48.982;8.406;2023-03-23T08:35:07;16.20;99.90
4390;DHT22;2209;48.982;8.406;2023-03-23T08:37:30;16.20;99.90
4390;DHT22;2209;48.982;8.406;2023-03-23T08:39:52;16.30;99.90
4390;DHT22;2209;48.982;8.406;2023-03-23T08:42:16;16.30;99.90
4390;DHT22;2209;48.982;8.406;2023-03-23T08:44:39;16.30;99.90
4390;DHT22;2209;48.982;8.406;2023-03-23T08:47:02;16.30;99.90
4390;DHT22;2209;48.982;8.406;2023-03-23T08:49:25;16.30;99.90
4390;DHT22;2209;48.982;8.406;2023-03-23T08:51:47;16.30;99.90
4390;DHT22;2209;48.982;8.406;2023-03-23T08:54:09;16.30;99.90
4390;DHT22;2209;48.982;8.406;2023-03-23T08:56:31;16.20;99.90
4390;DHT22;2209;48.982;8.406;2023-03-23T08:58:55;16.20;99.90
4390;DHT22;2209;48.982;8.406;2023-03-23T09:01:17;16.30;99.90
4390;DHT22;2209;48.982;8.406;2023-03-23T09:03:39;16.30;99.90
4390;DHT22;2209;48.982;8.406;2023-03-23T09:06:03;16.30;99.90
4390;DHT22;2209;48.982;8.406;2023-03-23T09:08:26;16.40;99.90
4390;DHT22;2209;48.982;8.406;2023-03-23T09:10:49;16.30;99.90
4390;DHT22;2209;48.982;8.406;2023-03-23T09:13:11;16.30;99.90
4390;DHT22;2209;48.982;8.406;2023-03-23T09:15:35;16.20;99.90
4390;DHT22;2209;48.982;8.406;2023-03-23T09:17:57;16.20;99.90
4390;DHT22;2209;48.982;8.406;2023-03-23T09:20:22;16.10;99.90
4390;DHT22;2209;48.982;8.406;2023-03-23T09:22:46;16.10;99.90
4390;DHT22;2209;48.982;8.406;2023-03-23T09:25:10;16.10;99.90
4390;DHT22;2209;48.982;8.406;2023-03-23T09:27:32;16.20;99.90
4390;DHT22;2209;48.982;8.406;2023-03-23T09:29:54;16.20;99.90
4390;DHT22;2209;48.982;8.406;2023-03-23T09:32:18;16.20;99.90
4390;DHT22;2209;48.982;8.406;2023-03-23T09:34:43;16.20;99.90
4390;DHT22;2209;48.982;8.406;2023-03-23T09:37:05;16.30;99.90
4390;DHT22;2209;48.982;8.406;2023-03-23T09:39:40;16.20;99.90
4390;DHT22;2209;48.982;8.406;2023-03-23T09:45:09;16.20;99.90
4390;DHT22;2209;48.982;8.406;2023-03-23T09:47:38;16.20;99.90
4390;DHT22;2209;48.982;8.406;2023-03-23T09:50:09;16.20;99.90
4390;DHT22;2209;48.982;8.406;2023-03-23T09:52:36;16.10;99.90
4390;DHT22;2209;48.982;8.406;2023-03-23T09:54:59;16.00;99.90
4390;DHT22;2209;48.982;8.406;2023-03-23T09:57:25;16.10;99.90
4390;DHT22;2209;48.982;8.406;2023-03-23T09:59:55;16.10;99.90
4390;DHT22;2209;48.982;8.406;2023-03-23T10:02:27;16.10;99.90
4390;DHT22;2209;48.982;8.406;2023-03-23T10:04:54;16.10;99.90
4390;DHT22;2209;48.982;8.406;2023-03-23T10:07:19;16.00;99.90
4390;DHT22;2209;48.982;8.406;2023-03-23T10:09:42;16.00;99.90
4390;DHT22;2209;48.982;8.406;2023-03-23T10:12:13;16.00;99.90
4390;DHT22;2209;48.982;8.406;2023-03-23T10:14:52;15.90;99.90
4390;DHT22;2209;48.982;8.406;2023-03-23T10:17:22;15.90;99.90
4390;DHT22;2209;48.982;8.406;2023-03-23T10:19:49;15.80;99.90
4390;DHT22;2209;48.982;8.406;2023-03-23T10:22:18;15.90;99.90
4390;DHT22;2209;48.982;8.406;2023-03-23T10:24:49;15.90;99.90
4390;DHT22;2209;48.982;8.406;2023-03-23T10:27:26;15.90;99.90
4390;DHT22;2209;48.982;8.406;2023-03-23T10:29:52;15.90;99.90
4390;DHT22;2209;48.982;8.406;2023-03-23T10:32:17;15.90;99.90
4390;DHT22;2209;48.982;8.406;2023-03-23T10:34:44;15.90;99.90
4390;DHT22;2209;48.982;8.406;2023-03-23T10:37:12;15.90;99.90
4390;DHT22;2209;48.982;8.406;2023-03-23T10:39:55;15.90;99.90
4390;DHT22;2209;48.982;8.406;2023-03-23T10:42:24;15.90;99.90
4390;DHT22;2209;48.982;8.406;2023-03-23T10:44:47;15.90;99.90
4390;DHT22;2209;48.982;8.406;2023-03-23T10:47:10;15.90;99.90
4390;DHT22;2209;48.982;8.406;2023-03-23T10:49:36;15.80;99.90
4390;DHT22;2209;48.982;8.406;2023-03-23T10:52:04;15.80;99.90
4390;DHT22;2209;48.982;8.406;2023-03-23T10:54:31;15.80;99.90
4390;DHT22;2209;48.982;8.406;2023-03-23T10:56:55;15.80;99.90
4390;DHT22;2209;48.982;8.406;2023-03-23T10:59:20;15.90;99.90
4390;DHT22;2209;48.982;8.406;2023-03-23T11:01:44;15.90;99.90
4390;DHT22;2209;48.982;8.406;2023-03-23T11:04:12;15.90;99.90
4390;DHT22;2209;48.982;8.406;2023-03-23T11:06:35;15.90;99.90
4390;DHT22;2209;48.982;8.406;2023-03-23T11:09:03;15.90;99.90
4390;DHT22;2209;48.982;8.406;2023-03-23T11:11:36;16.00;99.90
4390;DHT22;2209;48.982;8.406;2023-03-23T11:14:03;15.90;99.90
4390;DHT22;2209;48.982;8.406;2023-03-23T11:16:34;15.90;99.90
4390;DHT22;2209;48.982;8.406;2023-03-23T11:18:58;15.90;99.90
4390;DHT22;2209;48.982;8.406;2023-03-23T11:21:22;15.90;99.90
4390;DHT22;2209;48.982;8.406;2023-03-23T11:23:49;15.90;99.90
4390;DHT22;2209;48.982;8.406;2023-03-23T11:26:14;15.90;99.90
4390;DHT22;2209;48.982;8.406;2023-03-23T11:28:43;15.90;99.90
4390;DHT22;2209;48.982;8.406;2023-03-23T11:31:07;15.90;99.90
4390;DHT22;2209;48.982;8.406;2023-03-23T11:33:30;15.90;99.90
4390;DHT22;2209;48.982;8.406;2023-03-23T11:35:54;15.90;99.90
4390;DHT22;2209;48.982;8.406;2023-03-23T11:38:19;15.90;99.90
4390;DHT22;2209;48.982;8.406;2023-03-23T11:40:50;15.90;99.90
4390;DHT22;2209;48.982;8.406;2023-03-23T11:43:17;15.90;99.90
4390;DHT22;2209;48.982;8.406;2023-03-23T11:45:47;16.00;99.90
4390;DHT22;2209;48.982;8.406;2023-03-23T11:48:18;16.00;99.90
4390;DHT22;2209;48.982;8.406;2023-03-23T11:50:50;16.00;99.90
4390;DHT22;2209;48.982;8.406;2023-03-23T11:53:17;16.00;99.90
4390;DHT22;2209;48.982;8.406;2023-03-23T11:55:54;16.00;99.90
4390;DHT22;2209;48.982;8.406;2023-03-23T11:58:18;16.00;99.90
4390;DHT22;2209;48.982;8.406;2023-03-23T12:00:47;16.00;99.90
4390;DHT22;2209;48.982;8.406;2023-03-23T12:03:42;16.00;99.90
4390;DHT22;2209;48.982;8.406;2023-03-23T12:06:08;16.00;99.90
4390;DHT22;2209;48.982;8.406;2023-03-23T12:08:44;16.00;99.90
4390;DHT22;2209;48.982;8.406;2023-03-23T12:11:13;16.00;99.90
4390;DHT22;2209;48.982;8.406;2023-03-23T12:14:02;16.00;99.90
4390;DHT22;2209;48.982;8.406;2023-03-23T12:16:33;16.10;99.90
4390;DHT22;2209;48.982;8.406;2023-03-23T12:19:03;16.10;99.90
4390;DHT22;2209;48.982;8.406;2023-03-23T12:21:34;16.10;99.90
4390;DHT22;2209;48.982;8.406;2023-03-23T12:24:02;16.10;99.90
4390;DHT22;2209;48.982;8.406;2023-03-23T12:26:29;16.00;99.90
4390;DHT22;2209;48.982;8.406;2023-03-23T12:29:12;16.00;99.90
4390;DHT22;2209;48.982;8.406;2023-03-23T12:31:43;16.00;99.90
4390;DHT22;2209;48.982;8.406;2023-03-23T12:34:16;16.00;99.90
4390;DHT22;2209;48.982;8.406;2023-03-23T12:36:47;16.00;99.90
4390;DHT22;2209;48.982;8.406;2023-03-23T12:39:32;16.10;99.90
4390;DHT22;2209;48.982;8.406;2023-03-23T12:42:04;16.10;99.90
4390;DHT22;2209;48.982;8.406;2023-03-23T12:44:37;16.20;99.90
4390;DHT22;2209;48.982;8.406;2023-03-23T12:47:21;16.10;99.90
4390;DHT22;2209;48.982;8.406;2023-03-23T12:49:52;16.10;99.90
4390;DHT22;2209;48.982;8.406;2023-03-23T12:52:20;16.10;99.90
4390;DHT22;2209;48.982;8.406;2023-03-23T12:54:49;16.10;99.90
4390;DHT22;2209;48.982;8.406;2023-03-23T12:57:19;16.10;99.90
4390;DHT22;2209;48.982;8.406;2023-03-23T12:59:46;16.10;99.90
4390;DHT22;2209;48.982;8.406;2023-03-23T13:02:19;16.10;99.90
4390;DHT22;2209;48.982;8.406;2023-03-23T13:04:46;16.10;99.90
4390;DHT22;2209;48.982;8.406;2023-03-23T13:07:14;16.10;99.90
4390;DHT22;2209;48.982;8.406;2023-03-23T13:09:47;16.20;99.90
4390;DHT22;2209;48.982;8.406;2023-03-23T13:12:10;16.10;99.90
4390;DHT22;2209;48.982;8.406;2023-03-23T13:14:40;16.10;99.90
4390;DHT22;2209;48.982;8.406;2023-03-23T13:17:10;16.10;99.90
4390;DHT22;2209;48.982;8.406;2023-03-23T13:19:44;16.20;99.90
4390;DHT22;2209;48.982;8.406;2023-03-23T13:22:11;16.20;99.90
4390;DHT22;2209;48.982;8.406;2023-03-23T13:24:40;16.20;99.90
4390;DHT22;2209;48.982;8.406;2023-03-23T13:27:06;16.20;99.90
4390;DHT22;2209;48.982;8.406;2023-03-23T13:29:32;16.20;99.90
4390;DHT22;2209;48.982;8.406;2023-03-23T13:32:06;16.20;99.90
4390;DHT22;2209;48.982;8.406;2023-03-23T13:34:30;16.30;99.90
4390;DHT22;2209;48.982;8.406;2023-03-23T13:36:55;16.30;99.90
4390;DHT22;2209;48.982;8.406;2023-03-23T13:39:20;16.30;99.90
4390;DHT22;2209;48.982;8.406;2023-03-23T13:41:58;16.40;99.90
4390;DHT22;2209;48.982;8.406;2023-03-23T13:44:39;16.40;99.90
4390;DHT22;2209;48.982;8.406;2023-03-23T13:47:07;16.40;99.90
4390;DHT22;2209;48.982;8.406;2023-03-23T13:49:32;16.40;99.90
4390;DHT22;2209;48.982;8.406;2023-03-23T13:52:01;16.40;99.90
4390;DHT22;2209;48.982;8.406;2023-03-23T13:54:30;16.50;99.90
4390;DHT22;2209;48.982;8.406;2023-03-23T13:56:56;16.40;99.90
4390;DHT22;2209;48.982;8.406;2023-03-23T13:59:31;16.50;99.90
4390;DHT22;2209;48.982;8.406;2023-03-23T14:01:56;16.50;99.90
4390;DHT22;2209;48.982;8.406;2023-03-23T14:04:20;16.50;99.90
4390;DHT22;2209;48.982;8.406;2023-03-23T14:06:43;16.50;99.90
4390;DHT22;2209;48.982;8.406;2023-03-23T14:09:11;16.50;99.90
4390;DHT22;2209;48.982;8.406;2023-03-23T14:11:47;16.50;99.90
4390;DHT22;2209;48.982;8.406;2023-03-23T14:14:15;16.50;99.90
4390;DHT22;2209;48.982;8.406;2023-03-23T14:16:41;16.50;99.90
4390;DHT22;2209;48.982;8.406;2023-03-23T14:19:14;16.50;99.90
4390;DHT22;2209;48.982;8.406;2023-03-23T14:21:42;16.50;99.90
4390;DHT22;2209;48.982;8.406;2023-03-23T14:24:09;16.50;99.90
4390;DHT22;2209;48.982;8.406;2023-03-23T14:26:34;16.50;99.90
4390;DHT22;2209;48.982;8.406;2023-03-23T14:28:59;16.50;99.90
4390;DHT22;2209;48.982;8.406;2023-03-23T14:31:24;16.50;99.90
4390;DHT22;2209;48.982;8.406;2023-03-23T14:33:47;16.50;99.90
4390;DHT22;2209;48.982;8.406;2023-03-23T14:36:10;16.50;99.90
4390;DHT22;2209;48.982;8.406;2023-03-23T14:38:33;16.50;99.90
4390;DHT22;2209;48.982;8.406;2023-03-23T14:41:00;16.50;99.90
4390;DHT22;2209;48.982;8.406;2023-03-23T14:43:23;16.50;99.90
4390;DHT22;2209;48.982;8.406;2023-03-23T14:45:50;16.60;99.90
4390;DHT22;2209;48.982;8.406;2023-03-23T14:48:14;16.60;99.90
4390;DHT22;2209;48.982;8.406;2023-03-23T14:50:39;16.60;99.90
4390;DHT22;2209;48.982;8.406;2023-03-23T14:53:11;16.60;99.90
4390;DHT22;2209;48.982;8.406;2023-03-23T14:55:33;16.50;99.90
4390;DHT22;2209;48.982;8.406;2023-03-23T14:57:55;16.50;99.90
4390;DHT22;2209;48.982;8.406;2023-03-23T15:00:21;16.60;99.90
4390;DHT22;2209;48.982;8.406;2023-03-23T15:02:48;16.50;99.90
4390;DHT22;2209;48.982;8.406;2023-03-23T15:05:14;16.50;99.90
4390;DHT22;2209;48.982;8.406;2023-03-23T15:07:38;16.60;99.90
4390;DHT22;2209;48.982;8.406;2023-03-23T15:10:01;16.50;99.90
4390;DHT22;2209;48.982;8.406;2023-03-23T15:12:25;16.50;99.90
4390;DHT22;2209;48.982;8.406;2023-03-23T15:14:51;16.50;99.90
4390;DHT22;2209;48.982;8.406;2023-03-23T15:17:19;16.50;99.90
4390;DHT22;2209;48.982;8.406;2023-03-23T15:19:46;16.50;99.90
4390;DHT22;2209;48.982;8.406;2023-03-23T15:22:18;16.50;99.90
4390;DHT22;2209;48.982;8.406;2023-03-23T15:24:41;16.50;99.90
4390;DHT22;2209;48.982;8.406;2023-03-23T15:27:12;16.50;99.90
4390;DHT22;2209;48.982;8.406;2023-03-23T15:29:34;16.50;99.90
4390;DHT22;2209;48.982;8.406;2023-03-23T15:32:10;16.50;99.90
4390;DHT22;2209;48.982;8.406;2023-03-23T15:34:34;16.50;99.90
4390;DHT22;2209;48.982;8.406;2023-03-23T15:37:02;16.40;99.90
4390;DHT22;2209;48.982;8.406;2023-03-23T15:39:26;16.50;99.90
4390;DHT22;2209;48.982;8.406;2023-03-23T15:41:50;16.50;99.90
4390;DHT22;2209;48.982;8.406;2023-03-23T15:44:21;16.50;99.90
4390;DHT22;2209;48.982;8.406;2023-03-23T15:46:48;16.50;99.90
4390;DHT22;2209;48.982;8.406;2023-03-23T15:49:12;16.50;99.90
4390;DHT22;2209;48.982;8.406;2023-03-23T15:51:34;16.50;99.90
4390;DHT22;2209;48.982;8.406;2023-03-23T15:53:59;16.50;99.90
4390;DHT22;2209;48.982;8.406;2023-03-23T15:56:22;16.50;99.90